createdAt,value
2022-09-12T00:01:45.918Z,7.22
2022-09-12T00:04:13.880Z,6.68
2022-09-12T00:06:42.012Z,6.10
2022-09-12T00:09:14.023Z,6.95
2022-09-12T00:11:46.204Z,6.63
2022-09-12T00:14:17.052Z,5.53
2022-09-12T00:16:45.535Z,5.22
2022-09-12T00:19:14.238Z,5.30
2022-09-12T00:21:42.458Z,4.55
2022-09-12T00:24:12.136Z,5.65
2022-09-12T00:26:40.482Z,4.97
2022-09-12T00:29:11.115Z,5.68
2022-09-12T00:31:39.860Z,5.53
2022-09-12T00:34:07.998Z,4.85
2022-09-12T00:36:36.668Z,5.63
2022-09-12T00:39:05.880Z,5.97
2022-09-12T00:41:37.052Z,5.63
2022-09-12T00:44:20.820Z,5.38
2022-09-12T00:46:54.163Z,5.88
2022-09-12T00:49:27.247Z,5.68
2022-09-12T00:51:59.511Z,5.47
2022-09-12T00:54:40.075Z,6.03
2022-09-12T00:57:10.728Z,5.63
2022-09-12T00:59:42.360Z,5.70
2022-09-12T01:02:12.727Z,5.97
2022-09-12T01:04:43.250Z,5.43
2022-09-12T01:07:12.584Z,6.13
2022-09-12T01:09:45.271Z,5.90
2022-09-12T01:12:16.979Z,6.65
2022-09-12T01:14:44.884Z,5.45
2022-09-12T01:17:16.841Z,6.55
2022-09-12T01:20:10.281Z,6.40
2022-09-12T01:23:10.752Z,6.00
2022-09-12T01:25:54.290Z,5.88
2022-09-12T01:28:44.340Z,6.50
2022-09-12T01:31:19.293Z,6.65
2022-09-12T01:33:57.972Z,6.65
2022-09-12T01:36:40.936Z,6.50
2022-09-12T01:39:17.992Z,6.25
2022-09-12T01:41:54.718Z,6.35
2022-09-12T01:44:32.676Z,6.35
2022-09-12T01:47:08.502Z,6.30
2022-09-12T01:49:42.711Z,6.85
2022-09-12T01:52:16.568Z,7.63
2022-09-12T01:54:49.447Z,7.00
2022-09-12T01:57:24.997Z,6.63
2022-09-12T01:59:58.370Z,6.97
2022-09-12T02:02:32.414Z,6.90
2022-09-12T02:05:05.427Z,6.55
2022-09-12T02:07:38.277Z,6.40
2022-09-12T02:10:11.144Z,6.93
2022-09-12T02:12:45.151Z,6.25
2022-09-12T02:15:16.705Z,5.90
2022-09-12T02:17:53.624Z,6.45
2022-09-12T02:20:44.371Z,6.32
2022-09-12T02:23:16.008Z,6.72
2022-09-12T02:25:46.823Z,6.80
2022-09-12T02:28:19.777Z,6.88
2022-09-12T02:30:57.547Z,5.90
2022-09-12T02:33:31.715Z,6.28
2022-09-12T02:36:06.709Z,6.88
2022-09-12T02:38:40.817Z,6.50
2022-09-12T02:41:09.224Z,6.32
2022-09-12T02:43:38.822Z,6.43
2022-09-12T02:46:10.133Z,6.68
2022-09-12T02:48:43.702Z,6.72
2022-09-12T02:51:12.749Z,6.95
2022-09-12T02:53:42.411Z,6.13
2022-09-12T02:56:17.077Z,5.75
2022-09-12T02:58:45.547Z,6.03
2022-09-12T03:01:24.508Z,6.15
2022-09-12T03:04:12.101Z,5.35
2022-09-12T03:06:48.795Z,5.20
2022-09-12T03:09:22.783Z,5.80
2022-09-12T03:12:03.450Z,5.78
2022-09-12T03:14:49.419Z,5.50
2022-09-12T03:17:25.169Z,6.22
2022-09-12T03:20:01.840Z,6.43
2022-09-12T03:22:34.663Z,6.95
2022-09-12T03:25:09.354Z,6.13
2022-09-12T03:27:42.049Z,6.35
2022-09-12T03:30:12.539Z,6.45
2022-09-12T03:32:45.968Z,6.28
2022-09-12T03:35:22.242Z,5.50
2022-09-12T03:37:52.302Z,5.63
2022-09-12T03:40:20.951Z,5.43
2022-09-12T03:42:48.878Z,5.03
2022-09-12T03:45:17.189Z,6.10
2022-09-12T03:47:45.262Z,6.00
2022-09-12T03:50:13.287Z,6.25
2022-09-12T03:52:43.024Z,5.97
2022-09-12T03:55:11.848Z,6.28
2022-09-12T03:57:40.291Z,6.25
2022-09-12T04:00:10.244Z,5.68
2022-09-12T04:02:38.385Z,6.85
2022-09-12T04:05:06.821Z,5.72
2022-09-12T04:07:34.821Z,6.05
2022-09-12T04:10:04.776Z,6.10
2022-09-12T04:12:32.781Z,5.68
2022-09-12T04:15:14.221Z,5.95
2022-09-12T04:17:42.543Z,5.15
2022-09-12T04:20:11.325Z,6.35
2022-09-12T04:22:41.760Z,5.95
2022-09-12T04:25:11.919Z,5.88
2022-09-12T04:27:40.205Z,5.95
2022-09-12T04:30:10.426Z,5.63
2022-09-12T04:32:39.904Z,5.93
2022-09-12T04:35:08.335Z,6.30
2022-09-12T04:37:37.107Z,5.43
2022-09-12T04:40:07.871Z,6.15
2022-09-12T04:42:37.521Z,5.70
2022-09-12T04:45:06.616Z,6.13
2022-09-12T04:47:35.435Z,6.47
2022-09-12T04:50:03.656Z,5.80
2022-09-12T04:52:31.653Z,5.47
2022-09-12T04:54:59.935Z,6.07
2022-09-12T04:57:29.065Z,5.63
2022-09-12T04:59:58.778Z,5.18
2022-09-12T05:02:27.259Z,5.43
2022-09-12T05:04:57.649Z,5.63
2022-09-12T05:07:29.792Z,5.55
2022-09-12T05:09:58.527Z,5.88
2022-09-12T05:12:28.220Z,5.93
2022-09-12T05:14:58.191Z,5.55
2022-09-12T05:17:29.798Z,5.18
2022-09-12T05:19:58.039Z,5.82
2022-09-12T05:22:26.615Z,6.03
2022-09-12T05:24:55.191Z,5.20
2022-09-12T05:27:24.248Z,6.30
2022-09-12T05:29:53.198Z,6.25
2022-09-12T05:32:22.413Z,6.03
2022-09-12T05:34:54.762Z,5.88
2022-09-12T05:37:25.482Z,6.22
2022-09-12T05:39:53.578Z,6.22
2022-09-12T05:42:21.634Z,5.97
2022-09-12T05:44:49.989Z,5.97
2022-09-12T05:47:19.311Z,7.15
2022-09-12T05:49:48.076Z,7.18
2022-09-12T05:52:17.624Z,7.28
2022-09-12T05:54:47.962Z,7.57
2022-09-12T05:57:18.660Z,7.68
2022-09-12T05:59:46.730Z,10.18
2022-09-12T06:02:14.893Z,8.70
2022-09-12T06:04:43.699Z,10.40
2022-09-12T06:07:12.366Z,11.10
2022-09-12T06:09:46.330Z,10.40
2022-09-12T06:12:14.862Z,11.32
2022-09-12T06:14:44.632Z,10.32
2022-09-12T06:17:13.355Z,10.88
2022-09-12T06:19:41.515Z,9.70
2022-09-12T06:22:10.055Z,9.50
2022-09-12T06:24:38.601Z,10.05
2022-09-12T06:27:08.545Z,8.82
2022-09-12T06:29:37.890Z,9.77
2022-09-12T06:32:07.091Z,9.93
2022-09-12T06:34:37.078Z,9.68
2022-09-12T06:37:05.760Z,10.30
2022-09-12T06:39:38.217Z,10.90
2022-09-12T06:42:09.848Z,9.75
2022-09-12T06:44:37.990Z,9.25
2022-09-12T06:47:06.568Z,10.18
2022-09-12T06:49:35.489Z,10.30
2022-09-12T06:52:04.026Z,10.27
2022-09-12T07:09:16.650Z,9.25
2022-09-12T07:11:45.695Z,10.93
2022-09-12T07:14:15.404Z,9.15
2022-09-12T07:16:44.364Z,10.38
2022-09-12T07:19:13.366Z,11.13
2022-09-12T07:21:42.417Z,9.85
2022-09-12T07:24:12.661Z,10.02
2022-09-12T07:26:42.038Z,10.02
2022-09-12T07:29:35.825Z,9.30
2022-09-12T07:32:05.963Z,10.27
2022-09-12T07:34:34.530Z,9.80
2022-09-12T07:37:02.860Z,10.40
2022-09-12T07:39:32.971Z,9.70
2022-09-12T07:42:01.395Z,10.15
2022-09-12T07:44:30.824Z,10.80
2022-09-12T07:46:59.721Z,10.40
2022-09-12T07:49:27.713Z,10.05
2022-09-12T07:51:56.250Z,10.30
2022-09-12T07:54:24.584Z,10.32
2022-09-12T07:56:54.571Z,9.75
2022-09-12T07:59:41.858Z,9.82
2022-09-12T08:02:17.346Z,9.32
2022-09-12T08:04:46.285Z,7.97
2022-09-12T08:07:14.252Z,8.20
2022-09-12T08:09:43.521Z,8.45
2022-09-12T08:12:12.804Z,7.68
2022-09-12T08:14:40.793Z,8.43
2022-09-12T08:17:08.785Z,8.52
2022-09-12T08:19:37.200Z,8.02
2022-09-12T08:22:06.056Z,7.05
2022-09-12T08:24:34.334Z,8.18
2022-09-12T08:27:02.578Z,8.05
2022-09-12T08:29:32.261Z,8.40
2022-09-12T08:32:00.136Z,7.60
2022-09-12T08:34:28.560Z,6.85
2022-09-12T08:36:56.712Z,7.57
2022-09-12T08:39:26.000Z,6.15
2022-09-12T08:42:01.779Z,6.85
2022-09-12T08:45:08.954Z,6.25
2022-09-12T08:47:40.178Z,7.03
2022-09-12T08:50:16.355Z,6.45
2022-09-12T08:52:52.939Z,6.35
2022-09-12T08:55:33.647Z,6.47
2022-09-12T08:58:06.366Z,6.32
2022-09-12T09:00:49.041Z,5.32
2022-09-12T09:03:45.321Z,5.82
2022-09-12T09:06:35.595Z,5.32
2022-09-12T09:09:13.395Z,4.80
2022-09-12T09:11:54.842Z,5.22
2022-09-12T09:14:50.098Z,4.45
2022-09-12T09:17:38.163Z,4.43
2022-09-12T09:20:18.333Z,4.25
2022-09-12T09:22:53.574Z,4.57
2022-09-12T09:25:25.918Z,3.83
2022-09-12T09:27:59.759Z,3.92
2022-09-12T09:30:29.830Z,3.90
2022-09-12T09:33:03.018Z,4.55
2022-09-12T09:35:44.524Z,4.28
2022-09-12T09:38:27.971Z,4.00
2022-09-12T09:41:09.314Z,4.60
2022-09-12T09:43:40.978Z,3.83
2022-09-12T09:46:10.030Z,4.07
2022-09-12T09:48:43.191Z,4.45
2022-09-12T09:51:12.505Z,4.47
2022-09-12T09:53:46.749Z,4.10
2022-09-12T09:56:28.098Z,3.08
2022-09-12T09:59:00.230Z,3.33
2022-09-12T10:01:29.169Z,2.87
2022-09-12T10:03:58.637Z,3.40
2022-09-12T10:06:34.457Z,3.60
2022-09-12T10:09:09.028Z,3.42
2022-09-12T10:11:41.467Z,3.20
2022-09-12T10:14:30.704Z,2.92
2022-09-12T10:17:01.182Z,2.90
2022-09-12T10:19:40.635Z,2.78
2022-09-12T10:22:19.299Z,2.90
2022-09-12T10:24:52.412Z,3.47
2022-09-12T10:27:24.540Z,2.78
2022-09-12T10:29:57.447Z,2.85
2022-09-12T10:35:03.013Z,2.40
2022-09-12T10:37:36.711Z,2.28
2022-09-12T10:40:10.765Z,3.05
2022-09-12T10:42:52.705Z,2.30
2022-09-12T10:45:24.871Z,2.53
2022-09-12T10:47:54.439Z,2.45
2022-09-12T10:50:35.325Z,1.98
2022-09-12T10:53:18.894Z,2.70
2022-09-12T10:56:03.140Z,2.92
2022-09-12T10:59:01.187Z,2.38
2022-09-12T11:01:40.176Z,2.50
2022-09-12T11:04:34.780Z,2.35
2022-09-12T11:07:19.626Z,2.30
2022-09-12T11:09:58.319Z,2.67
2022-09-12T11:12:40.602Z,2.70
2022-09-12T11:15:27.160Z,2.38
2022-09-12T11:18:02.032Z,2.47
2022-09-12T11:20:48.201Z,2.35
2022-09-12T11:23:42.772Z,2.58
2022-09-12T11:26:26.625Z,2.70
2022-09-12T11:29:08.713Z,2.67
2022-09-12T11:32:03.875Z,2.63
2022-09-12T11:34:40.284Z,2.65
2022-09-12T11:37:32.580Z,2.40
2022-09-12T11:40:16.371Z,2.78
2022-09-12T11:42:47.346Z,2.45
2022-09-12T11:45:21.828Z,2.35
2022-09-12T11:47:55.503Z,2.63
2022-09-12T11:50:29.874Z,2.25
2022-09-12T11:53:07.795Z,2.35
2022-09-12T11:55:58.699Z,2.22
2022-09-12T11:58:29.935Z,2.58
2022-09-12T12:01:03.575Z,4.10
2022-09-12T12:03:39.166Z,2.50
2022-09-12T12:06:14.827Z,2.42
2022-09-12T12:08:48.808Z,2.55
2022-09-12T12:11:29.539Z,2.60
2022-09-12T12:14:02.400Z,2.58
2022-09-12T12:16:32.710Z,2.30
2022-09-12T12:19:06.499Z,2.53
2022-09-12T12:21:41.243Z,2.33
2022-09-12T12:24:25.115Z,1.95
2022-09-12T12:27:00.827Z,1.63
2022-09-12T12:30:00.674Z,2.30
2022-09-12T12:32:29.831Z,2.28
2022-09-12T12:35:38.712Z,1.77
2022-09-12T12:38:33.321Z,2.15
2022-09-12T12:41:40.747Z,2.05
2022-09-12T12:44:42.969Z,1.73
2022-09-12T12:47:20.317Z,2.10
2022-09-12T12:49:54.872Z,1.85
2022-09-12T12:52:25.799Z,1.90
2022-09-12T12:54:58.016Z,1.85
2022-09-12T12:57:47.354Z,2.08
2022-09-12T13:00:34.704Z,2.00
2022-09-12T13:03:19.502Z,1.75
2022-09-12T13:05:50.526Z,1.80
2022-09-12T13:08:31.543Z,1.77
2022-09-12T13:11:03.066Z,2.17
2022-09-12T13:13:37.769Z,1.63
2022-09-12T13:16:06.185Z,1.60
2022-09-12T13:18:46.705Z,1.40
2022-09-12T13:21:17.368Z,1.45
2022-09-12T13:23:46.331Z,1.35
2022-09-12T13:26:23.483Z,1.40
2022-09-12T13:28:53.919Z,1.17
2022-09-12T13:31:25.200Z,1.23
2022-09-12T13:34:04.802Z,1.33
2022-09-12T13:37:05.947Z,1.42
2022-09-12T13:39:51.744Z,1.45
2022-09-12T13:42:40.962Z,1.40
2022-09-12T13:45:15.410Z,1.30
2022-09-12T13:47:47.825Z,1.40
2022-09-12T13:50:20.761Z,1.45
2022-09-12T13:52:54.240Z,1.17
2022-09-12T13:55:31.556Z,1.10
2022-09-12T13:58:01.960Z,1.45
2022-09-12T14:00:33.417Z,1.40
2022-09-12T14:03:31.212Z,1.20
2022-09-12T14:06:06.244Z,1.52
2022-09-12T14:08:35.050Z,1.23
2022-09-12T14:11:11.060Z,1.40
2022-09-12T14:13:40.908Z,1.33
2022-09-12T14:16:13.225Z,1.40
2022-09-12T14:21:28.574Z,1.20
2022-09-12T14:23:57.304Z,1.10
2022-09-12T14:26:26.641Z,1.33
2022-09-12T14:28:55.018Z,1.13
2022-09-12T14:31:26.906Z,1.20
2022-09-12T14:34:00.654Z,1.00
2022-09-12T14:36:33.608Z,0.75
2022-09-12T14:39:12.389Z,0.73
2022-09-12T14:41:43.169Z,0.80
2022-09-12T14:44:19.357Z,0.88
2022-09-12T14:46:48.510Z,1.10
2022-09-12T14:49:21.621Z,0.95
2022-09-12T14:52:00.470Z,1.10
2022-09-12T14:54:39.434Z,1.00
2022-09-12T14:57:19.367Z,1.00
2022-09-12T14:59:48.753Z,1.30
2022-09-12T15:02:31.930Z,1.10
2022-09-12T15:05:24.105Z,1.40
2022-09-12T15:08:03.555Z,1.05
2022-09-12T15:10:35.412Z,1.13
2022-09-12T15:13:18.881Z,1.33
2022-09-12T15:15:49.036Z,1.00
2022-09-12T15:18:18.296Z,1.17
2022-09-12T15:20:48.521Z,0.98
2022-09-12T15:23:21.160Z,1.20
2022-09-12T15:25:50.419Z,1.13
2022-09-12T15:28:21.043Z,1.25
2022-09-12T15:30:52.438Z,1.00
2022-09-12T15:33:22.835Z,1.20
2022-09-12T15:35:51.505Z,1.10
2022-09-12T15:38:26.363Z,1.40
2022-09-12T15:40:54.897Z,1.30
2022-09-12T15:43:23.463Z,1.23
2022-09-12T15:45:53.661Z,1.10
2022-09-12T15:48:22.251Z,1.00
2022-09-12T15:50:50.493Z,1.13
2022-09-12T15:53:20.178Z,1.00
2022-09-12T15:55:48.097Z,1.00
2022-09-12T15:58:17.251Z,0.70
2022-09-12T16:00:45.167Z,1.10
2022-09-12T16:03:22.538Z,1.00
2022-09-12T16:05:52.728Z,0.73
2022-09-12T16:08:21.926Z,0.77
2022-09-12T16:10:55.561Z,1.05
2022-09-12T16:13:23.909Z,1.00
2022-09-12T16:15:52.079Z,1.17
2022-09-12T16:18:20.122Z,0.98
2022-09-12T16:20:51.931Z,1.30
2022-09-12T16:23:21.519Z,1.40
2022-09-12T16:25:57.769Z,1.00
2022-09-12T16:28:26.233Z,1.30
2022-09-12T16:30:57.666Z,1.13
2022-09-12T16:33:26.116Z,1.48
2022-09-12T16:35:55.054Z,1.23
2022-09-12T16:38:24.527Z,1.20
2022-09-12T16:40:52.711Z,1.00
2022-09-12T16:43:21.035Z,1.20
2022-09-12T16:45:49.350Z,1.30
2022-09-12T16:48:17.687Z,1.52
2022-09-12T16:50:45.737Z,1.42
2022-09-12T16:53:14.138Z,1.50
2022-09-12T16:55:51.975Z,1.13
2022-09-12T16:58:19.883Z,1.48
2022-09-12T17:00:47.871Z,1.40
2022-09-12T17:03:16.995Z,1.20
2022-09-12T17:05:44.903Z,1.20
2022-09-12T17:08:13.856Z,1.30
2022-09-12T17:10:43.713Z,1.20
2022-09-12T17:13:11.549Z,1.40
2022-09-12T17:15:39.572Z,1.30
2022-09-12T17:18:07.817Z,1.50
2022-09-12T17:20:37.196Z,1.38
2022-09-12T17:23:09.526Z,1.25
2022-09-12T17:25:37.788Z,1.45
2022-09-12T17:28:07.704Z,1.55
2022-09-12T17:30:36.080Z,1.45
2022-09-12T17:33:04.125Z,1.60
2022-09-12T17:35:35.320Z,1.40
2022-09-12T17:38:03.270Z,1.98
2022-09-12T17:40:55.609Z,1.55
2022-09-12T17:43:20.840Z,1.67
2022-09-12T17:45:56.629Z,2.35
2022-09-12T17:48:24.495Z,1.88
2022-09-12T17:50:52.819Z,1.33
2022-09-12T17:53:20.672Z,1.75
2022-09-12T17:55:51.511Z,1.60
2022-09-12T17:58:23.442Z,1.63
2022-09-12T18:01:09.312Z,2.00
2022-09-12T18:03:37.208Z,2.40
2022-09-12T18:06:05.228Z,2.50
2022-09-12T18:08:33.145Z,2.40
2022-09-12T18:11:05.446Z,2.28
2022-09-12T18:13:35.134Z,2.15
2022-09-12T18:16:07.480Z,2.00
2022-09-12T18:18:36.253Z,2.13
2022-09-12T18:21:05.300Z,2.60
2022-09-12T18:23:33.892Z,2.35
2022-09-12T18:26:04.390Z,2.88
2022-09-12T18:28:35.614Z,2.47
2022-09-12T18:31:03.574Z,2.60
2022-09-12T18:33:32.058Z,2.50
2022-09-12T18:36:04.812Z,2.40
2022-09-12T18:38:33.703Z,3.15
2022-09-12T18:41:05.919Z,2.70
2022-09-12T18:43:35.235Z,2.97
2022-09-12T18:46:07.898Z,3.30
2022-09-12T18:48:37.081Z,3.33
2022-09-12T18:51:07.951Z,2.53
2022-09-12T18:53:36.684Z,2.95
2022-09-12T18:56:08.640Z,3.20
2022-09-12T18:58:38.510Z,3.38
2022-09-12T19:01:11.215Z,3.60
2022-09-12T19:03:39.520Z,3.60
2022-09-12T19:06:09.159Z,4.25
2022-09-12T19:08:37.300Z,3.67
2022-09-12T19:11:05.250Z,3.70
2022-09-12T19:13:35.581Z,3.30
2022-09-12T19:16:06.401Z,2.65
2022-09-12T19:18:34.766Z,3.13
2022-09-12T19:21:02.657Z,3.95
2022-09-12T19:23:32.264Z,3.30
2022-09-12T19:26:02.399Z,3.45
2022-09-12T19:28:31.112Z,3.40
2022-09-12T19:30:59.687Z,3.10
2022-09-12T19:33:32.587Z,2.70
2022-09-12T19:36:03.445Z,3.40
2022-09-12T19:38:32.031Z,3.30
2022-09-12T19:41:01.173Z,3.92
2022-09-12T19:43:30.908Z,3.95
2022-09-12T19:45:59.360Z,3.67
2022-09-12T19:48:29.130Z,3.40
2022-09-12T19:51:00.829Z,3.00
2022-09-12T19:53:29.140Z,3.50
2022-09-12T19:56:01.568Z,3.38
2022-09-12T19:58:29.842Z,3.42
2022-09-12T20:01:07.434Z,3.25
2022-09-12T20:03:36.864Z,3.25
2022-09-12T20:06:05.765Z,3.50
2022-09-12T20:08:34.264Z,3.53
2022-09-12T20:11:02.759Z,3.53
2022-09-12T20:13:30.968Z,3.42
2022-09-12T20:16:07.230Z,3.55
2022-09-12T20:18:36.922Z,3.33
2022-09-12T20:21:12.475Z,3.38
2022-09-12T20:23:44.208Z,3.22
2022-09-12T20:26:12.472Z,3.72
2022-09-12T20:28:41.584Z,3.30
2022-09-12T20:31:12.848Z,3.60
2022-09-12T20:33:49.832Z,3.60
2022-09-12T20:36:26.422Z,4.10
2022-09-12T20:38:56.721Z,3.55
2022-09-12T20:41:25.684Z,3.60
2022-09-12T20:43:54.953Z,4.00
2022-09-12T20:46:23.942Z,3.70
2022-09-12T20:48:53.966Z,4.03
2022-09-12T20:51:22.989Z,3.95
2022-09-12T20:53:54.408Z,3.88
2022-09-12T20:56:22.811Z,4.22
2022-09-12T20:58:50.777Z,3.97
2022-09-12T21:01:18.711Z,3.83
2022-09-12T21:03:47.060Z,3.65
2022-09-12T21:06:17.905Z,3.90
2022-09-12T21:08:46.948Z,3.50
2022-09-12T21:11:15.953Z,3.90
2022-09-12T21:13:44.049Z,3.28
2022-09-12T21:16:14.179Z,4.00
2022-09-12T21:18:42.725Z,4.32
2022-09-12T21:21:11.621Z,3.63
2022-09-12T21:23:41.488Z,3.40
2022-09-12T21:26:09.437Z,4.78
2022-09-12T21:28:37.934Z,4.00
2022-09-12T21:31:06.548Z,3.85
2022-09-12T21:33:34.605Z,3.70
2022-09-12T21:36:03.831Z,3.80
2022-09-12T21:38:32.204Z,3.53
2022-09-12T21:41:12.896Z,5.40
2022-09-12T21:43:41.178Z,7.03
2022-09-12T21:46:09.782Z,4.40
2022-09-12T21:48:38.333Z,5.30
2022-09-12T21:51:06.664Z,3.97
2022-09-12T21:53:34.561Z,4.07
2022-09-12T21:56:03.881Z,3.95
2022-09-12T21:58:33.084Z,4.45
2022-09-12T22:01:01.225Z,4.50
2022-09-12T22:03:29.806Z,4.22
2022-09-12T22:05:58.893Z,4.28
2022-09-12T22:08:27.101Z,3.80
2022-09-12T22:10:58.579Z,3.42
2022-09-12T22:13:26.877Z,3.72
2022-09-12T22:15:56.105Z,3.90
2022-09-12T22:18:24.467Z,3.95
2022-09-12T22:20:59.824Z,3.60
2022-09-12T22:23:44.909Z,3.88
2022-09-12T22:26:14.034Z,4.15
2022-09-12T22:28:42.941Z,4.05
2022-09-12T22:31:13.493Z,3.95
2022-09-12T22:33:41.751Z,4.07
2022-09-12T22:36:10.959Z,4.03
2022-09-12T22:38:39.183Z,4.40
2022-09-12T22:41:10.654Z,4.10
2022-09-12T22:43:38.756Z,3.90
2022-09-12T22:46:08.453Z,4.30
2022-09-12T22:48:38.160Z,4.50
2022-09-12T22:51:06.920Z,4.30
2022-09-12T22:53:36.136Z,4.72
2022-09-12T22:56:05.521Z,5.43
2022-09-12T22:58:33.693Z,4.88
2022-09-12T23:01:01.685Z,5.03
2022-09-12T23:03:29.732Z,4.25
2022-09-12T23:05:59.108Z,4.18
2022-09-12T23:08:29.804Z,3.78
2022-09-12T23:11:02.559Z,4.05
2022-09-12T23:13:30.890Z,4.30
2022-09-12T23:15:59.823Z,4.05
2022-09-12T23:18:28.256Z,3.50
2022-09-12T23:21:02.686Z,3.80
2022-09-12T23:23:31.020Z,3.90
2022-09-12T23:26:03.334Z,3.53
2022-09-12T23:28:31.565Z,4.03
2022-09-12T23:31:00.169Z,3.70
2022-09-12T23:33:28.894Z,4.28
2022-09-12T23:36:01.750Z,3.88
2022-09-12T23:38:30.411Z,3.80
2022-09-12T23:40:58.663Z,4.15
2022-09-12T23:43:26.873Z,3.85
2022-09-12T23:45:54.749Z,4.05
2022-09-12T23:48:22.795Z,4.45
2022-09-12T23:50:51.653Z,4.30
2022-09-12T23:53:21.575Z,3.80
2022-09-12T23:55:50.320Z,4.35
2022-09-12T23:58:18.429Z,4.60
